sensor_id;sensor_type;location;lat;lon;timestamp;pressure;altitude;pressure_sealevel;temperature;humidity
15066;BME280;7632;64.944;20.038;2024-03-23T00:55:43;96943.19;;;-0.76;100.00
15066;BME280;7632;64.944;20.038;2024-03-23T00:58:09;96950.69;;;-0.69;100.00
15066;BME280;7632;64.944;20.038;2024-03-23T01:00:36;96943.97;;;-0.71;100.00
15066;BME280;7632;64.944;20.038;2024-03-23T01:03:05;96941.47;;;-0.68;100.00
15066;BME280;7632;64.944;20.038;2024-03-23T01:05:32;96932.25;;;-0.74;100.00
15066;BME280;7632;64.944;20.038;2024-03-23T01:07:58;96940.69;;;-0.78;100.00
15066;BME280;7632;64.944;20.038;2024-03-23T01:10:26;96935.69;;;-0.84;100.00
15066;BME280;7632;64.944;20.038;2024-03-23T01:12:52;96934.88;;;-0.94;100.00
15066;BME280;7632;64.944;20.038;2024-03-23T01:15:18;96944.91;;;-0.84;100.00
15066;BME280;7632;64.944;20.038;2024-03-23T01:17:44;96939.03;;;-0.90;100.00
15066;BME280;7632;64.944;20.038;2024-03-23T01:20:11;96943.25;;;-0.89;100.00
15066;BME280;7632;64.944;20.038;2024-03-23T01:22:37;96940.72;;;-0.87;100.00
15066;BME280;7632;64.944;20.038;2024-03-23T01:25:04;96940.72;;;-0.84;100.00
15066;BME280;7632;64.944;20.038;2024-03-23T01:27:31;96944.03;;;-0.80;100.00
15066;BME280;7632;64.944;20.038;2024-03-23T01:29:58;96941.56;;;-0.87;100.00
15066;BME280;7632;64.944;20.038;2024-03-23T01:32:24;96944.91;;;-0.88;100.00
15066;BME280;7632;64.944;20.038;2024-03-23T01:34:50;96943.25;;;-0.89;100.00
15066;BME280;7632;64.944;20.038;2024-03-23T01:37:16;96943.25;;;-0.89;100.00
15066;BME280;7632;64.944;20.038;2024-03-23T01:39:43;96935.59;;;-0.72;100.00
15066;BME280;7632;64.944;20.038;2024-03-23T01:42:08;96948.16;;;-0.64;100.00
15066;BME280;7632;64.944;20.038;2024-03-23T01:44:37;96948.19;;;-0.70;100.00
15066;BME280;7632;64.944;20.038;2024-03-23T01:47:03;96941.38;;;-0.56;100.00
15066;BME280;7632;64.944;20.038;2024-03-23T01:49:30;96948.09;;;-0.60;100.00
15066;BME280;7632;64.944;20.038;2024-03-23T01:51:56;96948.13;;;-0.61;100.00
15066;BME280;7632;64.944;20.038;2024-03-23T01:54:23;96948.13;;;-0.61;100.00
15066;BME280;7632;64.944;20.038;2024-03-23T01:56:49;96950.63;;;-0.60;100.00
15066;BME280;7632;64.944;20.038;2024-03-23T01:59:16;96959.06;;;-0.65;100.00
15066;BME280;7632;64.944;20.038;2024-03-23T02:01:43;96952.31;;;-0.62;100.00
15066;BME280;7632;64.944;20.038;2024-03-23T02:04:10;96954.78;;;-0.51;100.00
15066;BME280;7632;64.944;20.038;2024-03-23T02:06:36;96951.47;;;-0.56;100.00
15066;BME280;7632;64.944;20.038;2024-03-23T02:09:03;96946.41;;;-0.58;100.00
15066;BME280;7632;64.944;20.038;2024-03-23T02:11:29;96954.81;;;-0.57;100.00
15066;BME280;7632;64.944;20.038;2024-03-23T02:13:56;96957.28;;;-0.50;100.00
15066;BME280;7632;64.944;20.038;2024-03-23T02:16:21;96952.28;;;-0.53;100.00
15066;BME280;7632;64.944;20.038;2024-03-23T02:18:50;96956.50;;;-0.56;100.00
15066;BME280;7632;64.944;20.038;2024-03-23T02:21:15;96949.72;;;-0.51;100.00
15066;BME280;7632;64.944;20.038;2024-03-23T02:23:43;96958.16;;;-0.55;100.00
15066;BME280;7632;64.944;20.038;2024-03-23T02:26:09;96947.28;;;-0.62;100.00
15066;BME280;7632;64.944;20.038;2024-03-23T02:28:36;96946.41;;;-0.58;100.00
15066;BME280;7632;64.944;20.038;2024-03-23T02:31:02;96950.53;;;-0.45;100.00
15066;BME280;7632;64.944;20.038;2024-03-23T02:33:29;96953.13;;;-0.55;100.00
15066;BME280;7632;64.944;20.038;2024-03-23T02:35:56;96953.16;;;-0.58;100.00
15066;BME280;7632;64.944;20.038;2024-03-23T02:38:23;96956.50;;;-0.59;100.00
15066;BME280;7632;64.944;20.038;2024-03-23T02:40:50;96959.84;;;-0.56;100.00
15066;BME280;7632;64.944;20.038;2024-03-23T02:43:16;96954.78;;;-0.51;100.00
15066;BME280;7632;64.944;20.038;2024-03-23T02:45:42;96957.34;;;-0.57;100.00
15066;BME280;7632;64.944;20.038;2024-03-23T02:48:09;96964.91;;;-0.57;100.00
15066;BME280;7632;64.944;20.038;2024-03-23T02:50:35;96954.81;;;-0.54;100.00
15066;BME280;7632;64.944;20.038;2024-03-23T02:53:02;96961.50;;;-0.52;100.00
15066;BME280;7632;64.944;20.038;2024-03-23T02:55:27;96956.50;;;-0.56;100.00
15066;BME280;7632;64.944;20.038;2024-03-23T02:57:56;96957.28;;;-0.50;100.00
15066;BME280;7632;64.944;20.038;2024-03-23T03:00:21;96964.91;;;-0.57;100.00
15066;BME280;7632;64.944;20.038;2024-03-23T03:02:48;96958.19;;;-0.61;100.00
15066;BME280;7632;64.944;20.038;2024-03-23T03:05:14;96962.41;;;-0.60;100.00
15066;BME280;7632;64.944;20.038;2024-03-23T03:07:41;96966.63;;;-0.62;100.00
15066;BME280;7632;64.944;20.038;2024-03-23T03:10:07;96956.63;;;-0.74;100.00
15066;BME280;7632;64.944;20.038;2024-03-23T03:12:36;96970.84;;;-0.67;100.00
15066;BME280;7632;64.944;20.038;2024-03-23T03:15:05;96973.38;;;-0.73;100.00
15066;BME280;7632;64.944;20.038;2024-03-23T03:17:31;96963.31;;;-0.73;100.00
15066;BME280;7632;64.944;20.038;2024-03-23T03:19:57;96976.72;;;-0.65;100.00
15066;BME280;7632;64.944;20.038;2024-03-23T03:22:25;96965.00;;;-0.75;100.00
15066;BME280;7632;64.944;20.038;2024-03-23T03:24:51;96966.72;;;-0.83;100.00
15066;BME280;7632;64.944;20.038;2024-03-23T03:27:17;96970.00;;;-0.69;100.00
15066;BME280;7632;64.944;20.038;2024-03-23T03:29:43;96976.72;;;-0.65;100.00
15066;BME280;7632;64.944;20.038;2024-03-23T03:32:11;96972.56;;;-0.77;100.00
15066;BME280;7632;64.944;20.038;2024-03-23T03:34:37;96970.06;;;-0.78;100.00
15066;BME280;7632;64.944;20.038;2024-03-23T03:37:04;96966.72;;;-0.80;100.00
15066;BME280;7632;64.944;20.038;2024-03-23T03:39:30;96971.75;;;-0.80;100.00
15066;BME280;7632;64.944;20.038;2024-03-23T03:41:57;96976.78;;;-0.77;100.00
15066;BME280;7632;64.944;20.038;2024-03-23T03:44:22;96961.72;;;-0.90;100.00
15066;BME280;7632;64.944;20.038;2024-03-23T03:46:49;96972.63;;;-0.88;100.00
15066;BME280;7632;64.944;20.038;2024-03-23T03:49:16;96973.47;;;-0.89;100.00
15066;BME280;7632;64.944;20.038;2024-03-23T03:51:43;96970.09;;;-0.84;100.00
15066;BME280;7632;64.944;20.038;2024-03-23T03:54:09;96968.44;;;-0.92;100.00
15066;BME280;7632;64.944;20.038;2024-03-23T03:56:35;96974.22;;;-0.73;100.00
15066;BME280;7632;64.944;20.038;2024-03-23T03:59:01;96970.03;;;-0.75;100.00
15066;BME280;7632;64.944;20.038;2024-03-23T04:01:28;96978.47;;;-0.79;100.00
15066;BME280;7632;64.944;20.038;2024-03-23T04:03:53;96972.59;;;-0.81;100.00
15066;BME280;7632;64.944;20.038;2024-03-23T04:06:22;96972.59;;;-0.83;100.00
15066;BME280;7632;64.944;20.038;2024-03-23T04:08:47;96976.78;;;-0.77;100.00
15066;BME280;7632;64.944;20.038;2024-03-23T04:11:14;96979.31;;;-0.79;100.00
15066;BME280;7632;64.944;20.038;2024-03-23T04:13:40;96980.13;;;-0.75;100.00
15066;BME280;7632;64.944;20.038;2024-03-23T04:16:07;96981.81;;;-0.77;100.00
15066;BME280;7632;64.944;20.038;2024-03-23T04:18:34;96985.16;;;-0.75;100.00
15066;BME280;7632;64.944;20.038;2024-03-23T04:21:01;96979.31;;;-0.80;100.00
15066;BME280;7632;64.944;20.038;2024-03-23T04:23:28;96985.19;;;-0.81;100.00
15066;BME280;7632;64.944;20.038;2024-03-23T04:25:55;96981.81;;;-0.77;100.00
15066;BME280;7632;64.944;20.038;2024-03-23T04:28:21;96982.66;;;-0.78;100.00
15066;BME280;7632;64.944;20.038;2024-03-23T04:30:48;96985.19;;;-0.78;100.00
15066;BME280;7632;64.944;20.038;2024-03-23T04:33:14;96983.47;;;-0.73;100.00
15066;BME280;7632;64.944;20.038;2024-03-23T04:35:41;96988.47;;;-0.67;100.00
15066;BME280;7632;64.944;20.038;2024-03-23T04:38:08;96990.16;;;-0.66;100.00
15066;BME280;7632;64.944;20.038;2024-03-23T04:40:36;96986.03;;;-0.78;100.00
15066;BME280;7632;64.944;20.038;2024-03-23T04:43:03;96986.00;;;-0.75;100.00
15066;BME280;7632;64.944;20.038;2024-03-23T04:45:30;96991.84;;;-0.71;100.00
15066;BME280;7632;64.944;20.038;2024-03-23T04:47:57;96976.75;;;-0.68;100.00
15066;BME280;7632;64.944;20.038;2024-03-23T04:50:24;96982.63;;;-0.68;100.00
15066;BME280;7632;64.944;20.038;2024-03-23T04:52:51;96994.38;;;-0.67;100.00
15066;BME280;7632;64.944;20.038;2024-03-23T04:55:17;96984.31;;;-0.73;100.00
15066;BME280;7632;64.944;20.038;2024-03-23T04:57:46;97000.22;;;-0.63;100.00
15066;BME280;7632;64.944;20.038;2024-03-23T05:00:12;96999.34;;;-0.59;100.00
15066;BME280;7632;64.944;20.038;2024-03-23T05:02:44;97002.69;;;-0.56;100.00
15066;BME280;7632;64.944;20.038;2024-03-23T05:05:10;97010.22;;;-0.51;100.00
15066;BME280;7632;64.944;20.038;2024-03-23T05:07:37;97003.47;;;-0.40;100.00
15066;BME280;7632;64.944;20.038;2024-03-23T05:10:04;97004.28;;;-0.40;100.00
15066;BME280;7632;64.944;20.038;2024-03-23T05:12:30;97002.53;;;-0.27;100.00
15066;BME280;7632;64.944;20.038;2024-03-23T05:14:58;97007.59;;;-0.29;100.00
15066;BME280;7632;64.944;20.038;2024-03-23T05:17:25;97012.56;;;-0.18;100.00
15066;BME280;7632;64.944;20.038;2024-03-23T05:19:51;97015.06;;;-0.12;100.00
15066;BME280;7632;64.944;20.038;2024-03-23T05:22:18;97011.56;;;0.01;100.00
15066;BME280;7632;64.944;20.038;2024-03-23T05:24:45;97018.22;;;0.08;100.00
15066;BME280;7632;64.944;20.038;2024-03-23T05:27:12;97024.94;;;0.15;100.00
15066;BME280;7632;64.944;20.038;2024-03-23T05:29:37;97015.63;;;0.20;100.00
15066;BME280;7632;64.944;20.038;2024-03-23T05:32:06;97018.13;;;0.23;100.00
15066;BME280;7632;64.944;20.038;2024-03-23T05:34:32;97014.69;;;0.30;100.00
15066;BME280;7632;64.944;20.038;2024-03-23T05:36:59;97022.97;;;0.47;100.00
15066;BME280;7632;64.944;20.038;2024-03-23T05:39:25;97019.50;;;0.57;100.00
15066;BME280;7632;64.944;20.038;2024-03-23T05:41:52;97022.81;;;0.62;100.00
15066;BME280;7632;64.944;20.038;2024-03-23T05:44:18;97017.63;;;0.74;100.00
15066;BME280;7632;64.944;20.038;2024-03-23T05:46:45;97025.91;;;0.92;100.00
15066;BME280;7632;64.944;20.038;2024-03-23T05:49:15;97020.72;;;1.01;100.00
15066;BME280;7632;64.944;20.038;2024-03-23T05:51:42;97026.50;;;1.13;100.00
15066;BME280;7632;64.944;20.038;2024-03-23T05:54:08;97027.25;;;1.20;100.00
15066;BME280;7632;64.944;20.038;2024-03-23T05:56:35;97023.75;;;1.28;100.00
15066;BME280;7632;64.944;20.038;2024-03-23T05:59:00;97024.56;;;1.32;100.00
15066;BME280;7632;64.944;20.038;2024-03-23T06:01:28;97025.28;;;1.43;100.00
15066;BME280;7632;64.944;20.038;2024-03-23T06:03:54;97028.66;;;1.42;100.00
15066;BME280;7632;64.944;20.038;2024-03-23T06:06:23;97026.13;;;1.43;100.00
15066;BME280;7632;64.944;20.038;2024-03-23T06:08:49;97015.16;;;1.43;100.00
15066;BME280;7632;64.944;20.038;2024-03-23T06:11:15;97036.91;;;1.56;100.00
15066;BME280;7632;64.944;20.038;2024-03-23T06:13:41;97036.81;;;1.62;100.00
15066;BME280;7632;64.944;20.038;2024-03-23T06:16:08;97030.84;;;1.66;100.00
15066;BME280;7632;64.944;20.038;2024-03-23T06:18:34;97025.06;;;1.58;100.00
15066;BME280;7632;64.944;20.038;2024-03-23T06:21:00;97042.91;;;1.49;100.00
15066;BME280;7632;64.944;20.038;2024-03-23T06:23:28;97052.13;;;1.53;100.00
15066;BME280;7632;64.944;20.038;2024-03-23T06:25:54;97050.44;;;1.52;100.00
15066;BME280;7632;64.944;20.038;2024-03-23T06:28:20;97051.31;;;1.48;100.00
15066;BME280;7632;64.944;20.038;2024-03-23T06:30:47;97056.53;;;1.37;100.00
15066;BME280;7632;64.944;20.038;2024-03-23T06:33:13;97054.75;;;1.44;100.00
15066;BME280;7632;64.944;20.038;2024-03-23T06:35:40;97057.41;;;1.35;100.00
15066;BME280;7632;64.944;20.038;2024-03-23T06:38:05;97058.97;;;1.45;100.00
15066;BME280;7632;64.944;20.038;2024-03-23T06:40:36;97070.59;;;1.58;100.00
15066;BME280;7632;64.944;20.038;2024-03-23T06:43:01;97072.28;;;1.59;100.00
15066;BME280;7632;64.944;20.038;2024-03-23T06:45:28;97074.00;;;1.57;100.00
15066;BME280;7632;64.944;20.038;2024-03-23T06:47:54;97077.59;;;1.38;100.00
15066;BME280;7632;64.944;20.038;2024-03-23T06:50:23;97076.75;;;1.36;100.00
15066;BME280;7632;64.944;20.038;2024-03-23T06:52:49;97086.19;;;1.25;100.00
15066;BME280;7632;64.944;20.038;2024-03-23T06:55:16;97094.97;;;0.91;100.00
15066;BME280;7632;64.944;20.038;2024-03-23T06:57:43;97082.41;;;0.83;100.00
15066;BME280;7632;64.944;20.038;2024-03-23T07:00:11;97094.19;;;0.85;100.00
15066;BME280;7632;64.944;20.038;2024-03-23T07:02:38;97086.75;;;0.67;100.00
15066;BME280;7632;64.944;20.038;2024-03-23T07:05:06;97094.22;;;0.81;100.00
15066;BME280;7632;64.944;20.038;2024-03-23T07:07:32;97106.81;;;0.82;100.00
15066;BME280;7632;64.944;20.038;2024-03-23T07:09:59;97105.22;;;0.72;100.00
15066;BME280;7632;64.944;20.038;2024-03-23T07:12:24;97108.50;;;0.83;100.00
15066;BME280;7632;64.944;20.038;2024-03-23T07:14:52;97110.22;;;0.78;100.00
15066;BME280;7632;64.944;20.038;2024-03-23T07:17:18;97096.81;;;0.70;100.00
15066;BME280;7632;64.944;20.038;2024-03-23T07:19:46;97102.69;;;0.75;100.00
15066;BME280;7632;64.944;20.038;2024-03-23T07:22:12;97115.09;;;1.00;100.00
15066;BME280;7632;64.944;20.038;2024-03-23T07:24:41;97113.22;;;1.17;100.00
15066;BME280;7632;64.944;20.038;2024-03-23T07:27:07;97118.28;;;1.20;100.00
15066;BME280;7632;64.944;20.038;2024-03-23T07:29:35;97115.72;;;1.21;100.00
15066;BME280;7632;64.944;20.038;2024-03-23T07:32:03;97118.16;;;1.29;100.00
15066;BME280;7632;64.944;20.038;2024-03-23T07:34:29;97127.28;;;1.42;100.00
15066;BME280;7632;64.944;20.038;2024-03-23T07:36:55;97119.69;;;1.42;100.00
15066;BME280;7632;64.944;20.038;2024-03-23T07:39:22;97129.66;;;1.54;100.00
15066;BME280;7632;64.944;20.038;2024-03-23T07:41:50;97127.28;;;1.43;100.00
15066;BME280;7632;64.944;20.038;2024-03-23T07:44:16;97131.50;;;1.43;100.00
15066;BME280;7632;64.944;20.038;2024-03-23T07:46:42;97112.03;;;1.48;100.00
15066;BME280;7632;64.944;20.038;2024-03-23T07:49:09;97111.75;;;1.73;100.00
15066;BME280;7632;64.944;20.038;2024-03-23T07:51:36;97124.88;;;2.00;100.00
15066;BME280;7632;64.944;20.038;2024-03-23T07:54:04;97132.34;;;2.10;100.00
15066;BME280;7632;64.944;20.038;2024-03-23T07:56:32;97135.50;;;2.24;100.00
15066;BME280;7632;64.944;20.038;2024-03-23T07:58:58;97137.06;;;2.34;100.00
15066;BME280;7632;64.944;20.038;2024-03-23T08:01:24;97139.66;;;2.31;100.00
15066;BME280;7632;64.944;20.038;2024-03-23T08:03:50;97133.69;;;2.34;100.00
15066;BME280;7632;64.944;20.038;2024-03-23T08:06:19;97153.88;;;2.38;100.00
15066;BME280;7632;64.944;20.038;2024-03-23T08:08:47;97153.78;;;2.47;100.00
15066;BME280;7632;64.944;20.038;2024-03-23T08:11:14;97161.53;;;2.35;100.00
15066;BME280;7632;64.944;20.038;2024-03-23T08:13:41;97162.22;;;2.46;100.00
15066;BME280;7632;64.944;20.038;2024-03-23T08:16:08;97169.16;;;2.32;100.00
15066;BME280;7632;64.944;20.038;2024-03-23T08:18:34;97162.63;;;2.16;100.00
15066;BME280;7632;64.944;20.038;2024-03-23T08:21:02;97167.63;;;2.22;100.00
15066;BME280;7632;64.944;20.038;2024-03-23T08:23:30;97167.84;;;2.07;100.00
15066;BME280;7632;64.944;20.038;2024-03-23T08:25:59;97169.50;;;2.08;100.00
15066;BME280;7632;64.944;20.038;2024-03-23T08:28:26;97161.16;;;2.00;100.00
15066;BME280;7632;64.944;20.038;2024-03-23T08:30:52;97177.22;;;1.98;100.00
15066;BME280;7632;64.944;20.038;2024-03-23T08:33:19;97177.41;;;1.83;100.00
15066;BME280;7632;64.944;20.038;2024-03-23T08:35:53;97171.81;;;1.55;100.00
15066;BME280;7632;64.944;20.038;2024-03-23T08:38:19;97190.63;;;1.30;100.00
15066;BME280;7632;64.944;20.038;2024-03-23T08:40:47;97184.16;;;0.99;100.00
15066;BME280;7632;64.944;20.038;2024-03-23T08:43:13;97194.31;;;0.93;100.00
15066;BME280;7632;64.944;20.038;2024-03-23T08:45:40;97199.34;;;0.99;100.00
15066;BME280;7632;64.944;20.038;2024-03-23T08:48:06;97204.44;;;0.93;100.00
15066;BME280;7632;64.944;20.038;2024-03-23T08:50:34;97206.03;;;1.06;100.00
15066;BME280;7632;64.944;20.038;2024-03-23T08:53:00;97202.69;;;1.01;100.00
15066;BME280;7632;64.944;20.038;2024-03-23T08:55:27;97197.56;;;1.10;100.00
15066;BME280;7632;64.944;20.038;2024-03-23T08:57:54;97208.44;;;1.19;100.00
15066;BME280;7632;64.944;20.038;2024-03-23T09:00:21;97215.25;;;1.10;100.00
15066;BME280;7632;64.944;20.038;2024-03-23T09:02:47;97207.63;;;1.16;100.00
15066;BME280;7632;64.944;20.038;2024-03-23T09:05:14;97214.91;;;1.46;100.00
15066;BME280;7632;64.944;20.038;2024-03-23T09:07:40;97212.31;;;1.52;100.00
15066;BME280;7632;64.944;20.038;2024-03-23T09:10:08;97210.59;;;1.57;100.00
15066;BME280;7632;64.944;20.038;2024-03-23T09:12:33;97215.59;;;1.63;100.00
15066;BME280;7632;64.944;20.038;2024-03-23T09:15:02;97224.13;;;1.50;100.00
15066;BME280;7632;64.944;20.038;2024-03-23T09:17:28;97220.66;;;1.63;100.00
15066;BME280;7632;64.944;20.038;2024-03-23T09:19:55;97233.38;;;1.55;100.00
15066;BME280;7632;64.944;20.038;2024-03-23T09:22:20;97232.56;;;1.52;100.00
15066;BME280;7632;64.944;20.038;2024-03-23T09:24:47;97224.06;;;1.56;100.00
15066;BME280;7632;64.944;20.038;2024-03-23T09:27:13;97233.44;;;1.48;100.00
15066;BME280;7632;64.944;20.038;2024-03-23T09:29:40;97238.34;;;1.63;100.00
15066;BME280;7632;64.944;20.038;2024-03-23T09:32:07;97236.72;;;1.59;100.00
15066;BME280;7632;64.944;20.038;2024-03-23T09:34:34;97241.78;;;1.59;100.00
15066;BME280;7632;64.944;20.038;2024-03-23T09:37:00;97240.03;;;1.62;100.00
15066;BME280;7632;64.944;20.038;2024-03-23T09:39:26;97239.50;;;1.30;100.00
15066;BME280;7632;64.944;20.038;2024-03-23T09:41:56;97241.78;;;1.59;100.00
15066;BME280;7632;64.944;20.038;2024-03-23T09:44:24;97250.84;;;1.78;100.00
15066;BME280;7632;64.944;20.038;2024-03-23T09:46:51;97249.81;;;1.96;100.00
15066;BME280;7632;64.944;20.038;2024-03-23T09:49:19;97249.66;;;2.09;100.00
15066;BME280;7632;64.944;20.038;2024-03-23T09:51:45;97259.38;;;1.71;100.00
15066;BME280;7632;64.944;20.038;2024-03-23T09:54:12;97255.91;;;1.78;100.00
15066;BME280;7632;64.944;20.038;2024-03-23T09:56:38;97256.00;;;1.69;100.00
15066;BME280;7632;64.944;20.038;2024-03-23T09:59:05;97257.75;;;1.65;100.00
15066;BME280;7632;64.944;20.038;2024-03-23T10:01:31;97257.00;;;1.53;100.00
15066;BME280;7632;64.944;20.038;2024-03-23T10:03:58;97254.66;;;1.35;100.00
15066;BME280;7632;64.944;20.038;2024-03-23T10:06:25;97260.63;;;1.28;100.00
15066;BME280;7632;64.944;20.038;2024-03-23T10:08:53;97261.38;;;1.36;100.00
15066;BME280;7632;64.944;20.038;2024-03-23T10:11:20;97258.16;;;1.19;100.00
15066;BME280;7632;64.944;20.038;2024-03-23T10:13:48;97267.38;;;1.23;100.00
15066;BME280;7632;64.944;20.038;2024-03-23T10:16:21;97259.81;;;1.23;100.00
15066;BME280;7632;64.944;20.038;2024-03-23T10:18:49;97272.38;;;1.33;100.00
15066;BME280;7632;64.944;20.038;2024-03-23T10:21:16;97273.22;;;1.31;100.00
15066;BME280;7632;64.944;20.038;2024-03-23T10:23:44;97288.38;;;1.32;100.00
15066;BME280;7632;64.944;20.038;2024-03-23T10:26:16;97290.13;;;1.23;100.00
15066;BME280;7632;64.944;20.038;2024-03-23T10:28:56;97283.53;;;1.02;100.00
15066;BME280;7632;64.944;20.038;2024-03-23T10:31:25;97287.72;;;1.06;100.00
15066;BME280;7632;64.944;20.038;2024-03-23T10:33:52;97287.03;;;0.88;100.00
15066;BME280;7632;64.944;20.038;2024-03-23T10:36:20;97293.72;;;0.95;100.00
15066;BME280;7632;64.944;20.038;2024-03-23T10:38:50;97292.13;;;0.81;100.00
15066;BME280;7632;64.944;20.038;2024-03-23T10:41:16;97292.91;;;0.86;100.00
15066;BME280;7632;64.944;20.038;2024-03-23T10:43:45;97306.44;;;0.78;100.00
15066;BME280;7632;64.944;20.038;2024-03-23T10:46:11;97294.66;;;0.78;100.00
15066;BME280;7632;64.944;20.038;2024-03-23T10:48:38;97304.78;;;0.72;100.00
15066;BME280;7632;64.944;20.038;2024-03-23T10:51:06;97297.22;;;0.72;100.00
15066;BME280;7632;64.944;20.038;2024-03-23T10:53:34;97303.97;;;0.73;100.00
15066;BME280;7632;64.944;20.038;2024-03-23T10:56:01;97302.16;;;0.94;100.00
15066;BME280;7632;64.944;20.038;2024-03-23T10:58:31;97312.25;;;0.95;100.00
15066;BME280;7632;64.944;20.038;2024-03-23T11:00:57;97319.00;;;0.88;100.00
15066;BME280;7632;64.944;20.038;2024-03-23T11:03:31;97314.03;;;0.76;100.00
15066;BME280;7632;64.944;20.038;2024-03-23T11:05:57;97314.75;;;1.00;100.00
15066;BME280;7632;64.944;20.038;2024-03-23T11:08:34;97312.88;;;1.24;100.00
15066;BME280;7632;64.944;20.038;2024-03-23T11:11:21;97315.47;;;1.20;100.00
15066;BME280;7632;64.944;20.038;2024-03-23T11:13:49;97321.25;;;1.31;100.00
15066;BME280;7632;64.944;20.038;2024-03-23T11:16:16;97322.09;;;1.30;100.00
15066;BME280;7632;64.944;20.038;2024-03-23T11:18:43;97317.16;;;1.15;100.00
15066;BME280;7632;64.944;20.038;2024-03-23T11:21:10;97320.41;;;1.32;100.00
15066;BME280;7632;64.944;20.038;2024-03-23T11:23:37;97320.31;;;1.44;100.00
15066;BME280;7632;64.944;20.038;2024-03-23T11:26:07;97323.59;;;1.55;100.00
15066;BME280;7632;64.944;20.038;2024-03-23T11:28:35;97332.88;;;1.57;100.00
15066;BME280;7632;64.944;20.038;2024-03-23T11:31:01;97333.81;;;1.43;100.00
15066;BME280;7632;64.944;20.038;2024-03-23T11:33:28;97330.50;;;1.36;100.00
15066;BME280;7632;64.944;20.038;2024-03-23T11:35:54;97336.47;;;1.29;100.00
15066;BME280;7632;64.944;20.038;2024-03-23T11:38:21;97339.88;;;1.24;100.00
15066;BME280;7632;64.944;20.038;2024-03-23T11:40:48;97335.69;;;1.17;100.00
15066;BME280;7632;64.944;20.038;2024-03-23T11:43:17;97338.94;;;1.34;100.00
15066;BME280;7632;64.944;20.038;2024-03-23T11:45:45;97342.28;;;1.36;100.00
15066;BME280;7632;64.944;20.038;2024-03-23T11:48:13;97340.72;;;1.23;100.00
15066;BME280;7632;64.944;20.038;2024-03-23T11:50:40;97351.75;;;1.08;100.00
15066;BME280;7632;64.944;20.038;2024-03-23T11:53:09;97353.13;;;1.53;100.00
15066;BME280;7632;64.944;20.038;2024-03-23T11:55:48;97352.13;;;1.72;99.41
15066;BME280;7632;64.944;20.038;2024-03-23T11:58:16;97363.97;;;1.67;98.19
15066;BME280;7632;64.944;20.038;2024-03-23T12:00:49;97356.25;;;1.84;95.87
15066;BME280;7632;64.944;20.038;2024-03-23T12:03:17;97351.38;;;1.58;96.15
15066;BME280;7632;64.944;20.038;2024-03-23T12:05:47;97357.44;;;1.39;96.40
15066;BME280;7632;64.944;20.038;2024-03-23T12:08:19;97357.41;;;1.42;96.22
15066;BME280;7632;64.944;20.038;2024-03-23T12:10:47;97362.44;;;1.48;96.63
15066;BME280;7632;64.944;20.038;2024-03-23T12:13:18;97359.81;;;1.61;95.94
15066;BME280;7632;64.944;20.038;2024-03-23T12:15:47;97354.72;;;1.64;96.35
15066;BME280;7632;64.944;20.038;2024-03-23T12:18:13;97362.28;;;1.66;95.65
15066;BME280;7632;64.944;20.038;2024-03-23T12:20:40;97358.81;;;1.79;97.00
15066;BME280;7632;64.944;20.038;2024-03-23T12:23:08;97364.72;;;1.80;95.61
15066;BME280;7632;64.944;20.038;2024-03-23T12:25:35;97374.00;;;1.79;96.53
15066;BME280;7632;64.944;20.038;2024-03-23T12:28:02;97361.47;;;1.62;95.51
15066;BME280;7632;64.944;20.038;2024-03-23T12:30:28;97376.69;;;1.61;96.08
15066;BME280;7632;64.944;20.038;2024-03-23T12:32:56;97376.78;;;1.46;95.98
15066;BME280;7632;64.944;20.038;2024-03-23T12:35:22;97384.72;;;0.92;96.93
15066;BME280;7632;64.944;20.038;2024-03-23T12:37:49;97387.41;;;0.49;99.03
15066;BME280;7632;64.944;20.038;2024-03-23T12:40:15;97388.22;;;0.63;99.79
15066;BME280;7632;64.944;20.038;2024-03-23T12:42:42;97391.50;;;0.74;99.41
15066;BME280;7632;64.944;20.038;2024-03-23T12:45:08;97388.22;;;0.53;99.27
15066;BME280;7632;64.944;20.038;2024-03-23T12:47:35;97380.66;;;0.56;99.64
15066;BME280;7632;64.944;20.038;2024-03-23T12:50:03;97401.69;;;0.50;100.00
15066;BME280;7632;64.944;20.038;2024-03-23T12:52:31;97400.03;;;0.46;99.63
15066;BME280;7632;64.944;20.038;2024-03-23T12:54:57;97393.25;;;0.60;98.95
15066;BME280;7632;64.944;20.038;2024-03-23T12:57:23;97405.88;;;0.65;99.82
15066;BME280;7632;64.944;20.038;2024-03-23T12:59:50;97406.78;;;0.47;100.00
15066;BME280;7632;64.944;20.038;2024-03-23T13:02:18;97407.66;;;0.36;100.00
15066;BME280;7632;64.944;20.038;2024-03-23T13:04:49;97406.81;;;0.32;100.00
15066;BME280;7632;64.944;20.038;2024-03-23T13:07:18;97407.63;;;0.34;100.00
15066;BME280;7632;64.944;20.038;2024-03-23T13:09:44;97415.28;;;0.06;100.00
15066;BME280;7632;64.944;20.038;2024-03-23T13:12:11;97415.28;;;-0.02;100.00
15066;BME280;7632;64.944;20.038;2024-03-23T13:14:37;97413.59;;;-0.03;100.00
15066;BME280;7632;64.944;20.038;2024-03-23T13:17:04;97417.78;;;0.24;100.00
15066;BME280;7632;64.944;20.038;2024-03-23T13:19:30;97416.91;;;0.34;100.00
15066;BME280;7632;64.944;20.038;2024-03-23T13:21:57;97422.78;;;0.34;100.00
15066;BME280;7632;64.944;20.038;2024-03-23T13:24:25;97418.59;;;0.39;100.00
15066;BME280;7632;64.944;20.038;2024-03-23T13:26:53;97423.63;;;0.39;100.00
15066;BME280;7632;64.944;20.038;2024-03-23T13:29:19;97408.50;;;0.35;100.00
15066;BME280;7632;64.944;20.038;2024-03-23T13:31:46;97422.75;;;0.49;100.00
15066;BME280;7632;64.944;20.038;2024-03-23T13:34:12;97415.22;;;0.42;100.00
15066;BME280;7632;64.944;20.038;2024-03-23T13:36:40;97423.63;;;0.45;100.00
15066;BME280;7632;64.944;20.038;2024-03-23T13:39:06;97423.63;;;0.39;100.00
15066;BME280;7632;64.944;20.038;2024-03-23T13:41:38;97420.25;;;0.34;100.00
15066;BME280;7632;64.944;20.038;2024-03-23T13:44:05;97426.16;;;0.29;100.00
15066;BME280;7632;64.944;20.038;2024-03-23T13:46:32;97430.38;;;0.22;100.00
15066;BME280;7632;64.944;20.038;2024-03-23T13:48:57;97434.59;;;0.25;100.00
15066;BME280;7632;64.944;20.038;2024-03-23T13:51:25;97432.88;;;0.34;100.00